GIBO2: Ft Gibson Lake, OK

Data processed at Fri Dec 08 2017 23:31


All information presented herein is the property of the government of the United States of America and may be revised or deleted at any time without prior notice.
Dissemination of this information without the expressed written consent of the Public Affairs Office, Tulsa District U.S. Army Corps of Engineers is strictly prohibited.
These data are gathered electronically and, as presented, have not undergone any form of quality control. These data are not guaranteed to be valid or correct.
Go to home page.
Go to station list.

Upstream stations:

Downstream station:
Previous Day
Next Day
Current Day
    
SHEF ID:       GIBO2     Ft Gibson Lake, OK
STATION TYPE:  RESERVOIR
Normal Pool:  Bottom =   551.00, Top =   554.00

               PRECIP ELEVATION   STORAGE   TW-ELEV    INFLOW   RELEASE  AIR-TEMP  WIND-DIRWIND-SPEED REL-HUMID SOLAR-RAD   VOLTAGE  BAT-LOAD
                   in        ft     ac-ft        ft       cfs       cfs         F       deg       mph         %      W/m2      volt      volt
              Ccp-Rev   Ccp-Rev   Ccp-Rev   Ccp-Rev  Regi-Rev  Regi-Rev   Ccp-Rev   Ccp-Rev   Ccp-Rev   Ccp-Rev   Ccp-Rev   Ccp-Rev   Ccp-Rev
(US/Central)
12/06 00:00      0.00    554.13    367709    490.62        15         0    -24.61    145.20      0.86      8.91      0.00     13.67     13.48
12/06 01:00      0.00    554.14    367902    490.37        66         0    -24.61    150.10      0.65      8.85      0.00     13.66     13.48
12/06 02:00      0.00    554.16    368288    490.22       118         0    -24.61    159.20      0.56      8.97      0.00     13.66     13.48
12/06 03:00      0.00    554.12    367516    490.13       193         0    -24.50    144.50      1.52      8.85      0.00     13.67     13.48
12/06 04:00      0.00    554.13    367709    490.07       514         0    -24.18    150.50      2.59      8.97      0.00     13.66     13.48
12/06 05:00      0.00    554.14    367902    490.00       825         0    -24.39    155.80      3.01      8.85      0.00     13.66     13.48
12/06 06:00      0.00    554.13    367709    490.51      1096       751    -24.29    154.10      2.30      8.85      0.00     13.65     13.48
12/06 07:00      0.00    554.08    366744    492.94      1258      8073    -24.29    159.60      2.37      8.91      0.00     13.66     13.48
12/06 08:00      0.00    554.08    366744    493.27      1289      8073    -24.07    152.50      1.78      8.97      7.00     13.67     13.48
12/06 09:00      0.00    554.05    366165    493.37      1073      8073    -25.06    160.80      1.39      8.79    123.00     13.66     13.48
12/06 10:00      0.00    554.04    365972    493.11       750      8073    -23.96    313.10      1.19      9.03    352.00     13.66     13.48
12/06 11:00      0.00    554.02    365586    491.24       427         0    -24.95    315.80      0.36      8.91    491.00     13.67     13.48
12/06 12:00      0.00    554.00    365200    490.61       213         0    -23.30    312.00      0.88      8.91    574.00     13.67     13.48
12/06 13:00      0.00    553.99    365013    490.39       509         0    -25.94     78.50      0.04      9.46    590.00     13.45     13.48
12/06 14:00      0.12    554.02    365586    490.31       402         0     55.26    271.30      0.07     36.44    540.00     13.67     13.36
12/06 15:00      0.00    554.04    365972    490.22       402         0     56.80    142.10      0.39     36.32    429.00     13.66     13.00
12/06 16:00      0.00    554.04    365972    490.22       461         0     56.48    169.20      0.60     33.94    271.00     13.66     12.95
12/06 17:00      0.00    553.97    364639    490.58       552         0     53.83    134.40      0.75     38.52     88.00     13.65     13.48
12/06 18:00      0.00    553.94    364078    492.91       150      7578     51.21     11.10      1.39     44.75      2.00     13.64     13.48
12/06 19:00      0.00    553.95    364265    493.32       150      8073     49.89     11.30      1.28     43.41      0.00     13.65     13.48
12/06 20:00      0.00    553.93    363891    493.40       150      8907     48.24      7.30      3.18     45.05      0.00     13.65     13.42
12/06 21:00      0.00    553.93    363891    493.06        91      7908     46.26     10.00      3.25     45.18      0.00     13.67     13.48
12/06 22:00      0.00    553.90    363330    491.24         0       754     42.85      4.90      2.75     66.72      0.00     13.64     13.48
12/06 23:00      0.00    553.85    362395    490.62      1901         0     39.22    167.60      0.93     76.61      0.00     13.65     13.42